sensor_id;sensor_type;location;lat;lon;timestamp;P1;durP1;ratioP1;P2;durP2;ratioP2
18280;SDS011;9266;51.132;17.062;2022-09-03T00:02:31;5.77;;;2.90;;
18280;SDS011;9266;51.132;17.062;2022-09-03T00:05:05;5.63;;;3.03;;
18280;SDS011;9266;51.132;17.062;2022-09-03T00:07:41;4.07;;;2.57;;
18280;SDS011;9266;51.132;17.062;2022-09-03T00:10:15;3.33;;;2.70;;
18280;SDS011;9266;51.132;17.062;2022-09-03T00:12:46;4.20;;;2.80;;
18280;SDS011;9266;51.132;17.062;2022-09-03T00:15:16;3.60;;;2.70;;
18280;SDS011;9266;51.132;17.062;2022-09-03T00:17:46;2.73;;;2.50;;
18280;SDS011;9266;51.132;17.062;2022-09-03T00:20:20;4.00;;;2.90;;
18280;SDS011;9266;51.132;17.062;2022-09-03T00:22:53;3.87;;;2.63;;
18280;SDS011;9266;51.132;17.062;2022-09-03T00:25:23;3.23;;;2.40;;
18280;SDS011;9266;51.132;17.062;2022-09-03T00:27:56;3.47;;;2.60;;
18280;SDS011;9266;51.132;17.062;2022-09-03T00:30:23;4.57;;;2.67;;
18280;SDS011;9266;51.132;17.062;2022-09-03T00:32:53;5.10;;;2.43;;
18280;SDS011;9266;51.132;17.062;2022-09-03T00:35:28;2.50;;;2.30;;
18280;SDS011;9266;51.132;17.062;2022-09-03T00:37:58;4.90;;;2.60;;
18280;SDS011;9266;51.132;17.062;2022-09-03T00:40:40;3.13;;;2.57;;
18280;SDS011;9266;51.132;17.062;2022-09-03T00:43:17;4.27;;;2.70;;
18280;SDS011;9266;51.132;17.062;2022-09-03T00:45:59;4.43;;;2.77;;
18280;SDS011;9266;51.132;17.062;2022-09-03T00:48:38;3.10;;;2.40;;
18280;SDS011;9266;51.132;17.062;2022-09-03T00:51:20;4.20;;;2.50;;
18280;SDS011;9266;51.132;17.062;2022-09-03T00:53:56;3.77;;;2.80;;
18280;SDS011;9266;51.132;17.062;2022-09-03T00:56:32;5.13;;;2.97;;
18280;SDS011;9266;51.132;17.062;2022-09-03T00:59:13;3.90;;;2.57;;
18280;SDS011;9266;51.132;17.062;2022-09-03T01:01:54;4.30;;;2.60;;
18280;SDS011;9266;51.132;17.062;2022-09-03T01:04:34;3.13;;;2.43;;
18280;SDS011;9266;51.132;17.062;2022-09-03T01:07:17;2.77;;;2.57;;
18280;SDS011;9266;51.132;17.062;2022-09-03T01:13:17;4.20;;;3.00;;
18280;SDS011;9266;51.132;17.062;2022-09-03T01:15:50;3.30;;;2.60;;
18280;SDS011;9266;51.132;17.062;2022-09-03T01:18:30;3.40;;;2.60;;
18280;SDS011;9266;51.132;17.062;2022-09-03T01:21:15;5.53;;;2.83;;
18280;SDS011;9266;51.132;17.062;2022-09-03T01:24:04;3.87;;;2.77;;
18280;SDS011;9266;51.132;17.062;2022-09-03T01:26:48;5.03;;;2.80;;
18280;SDS011;9266;51.132;17.062;2022-09-03T01:29:26;3.90;;;2.70;;
18280;SDS011;9266;51.132;17.062;2022-09-03T01:32:01;5.87;;;3.10;;
18280;SDS011;9266;51.132;17.062;2022-09-03T01:34:39;5.87;;;3.03;;
18280;SDS011;9266;51.132;17.062;2022-09-03T01:37:14;4.30;;;2.70;;
18280;SDS011;9266;51.132;17.062;2022-09-03T01:39:54;5.53;;;3.07;;
18280;SDS011;9266;51.132;17.062;2022-09-03T01:42:32;4.73;;;3.10;;
18280;SDS011;9266;51.132;17.062;2022-09-03T01:45:16;4.43;;;3.10;;
18280;SDS011;9266;51.132;17.062;2022-09-03T01:47:59;4.20;;;3.30;;
18280;SDS011;9266;51.132;17.062;2022-09-03T01:50:38;5.47;;;3.17;;
18280;SDS011;9266;51.132;17.062;2022-09-03T01:53:11;4.40;;;3.00;;
18280;SDS011;9266;51.132;17.062;2022-09-03T01:55:57;3.47;;;3.00;;
18280;SDS011;9266;51.132;17.062;2022-09-03T01:58:38;4.00;;;3.00;;
18280;SDS011;9266;51.132;17.062;2022-09-03T02:01:13;4.97;;;3.40;;
18280;SDS011;9266;51.132;17.062;2022-09-03T02:03:45;6.83;;;3.57;;
18280;SDS011;9266;51.132;17.062;2022-09-03T02:06:14;7.93;;;3.13;;
18280;SDS011;9266;51.132;17.062;2022-09-03T02:08:41;6.50;;;3.50;;
18280;SDS011;9266;51.132;17.062;2022-09-03T02:11:08;4.73;;;3.27;;
18280;SDS011;9266;51.132;17.062;2022-09-03T02:13:37;5.53;;;3.20;;
18280;SDS011;9266;51.132;17.062;2022-09-03T02:16:09;3.83;;;3.33;;
18280;SDS011;9266;51.132;17.062;2022-09-03T02:18:40;3.70;;;3.17;;
18280;SDS011;9266;51.132;17.062;2022-09-03T02:21:10;5.57;;;3.20;;
18280;SDS011;9266;51.132;17.062;2022-09-03T02:23:38;5.00;;;3.53;;
18280;SDS011;9266;51.132;17.062;2022-09-03T02:26:07;4.57;;;3.20;;
18280;SDS011;9266;51.132;17.062;2022-09-03T02:28:36;3.97;;;3.40;;
18280;SDS011;9266;51.132;17.062;2022-09-03T02:31:03;5.57;;;3.30;;
18280;SDS011;9266;51.132;17.062;2022-09-03T02:33:34;5.17;;;3.47;;
18280;SDS011;9266;51.132;17.062;2022-09-03T02:36:03;3.97;;;3.40;;
18280;SDS011;9266;51.132;17.062;2022-09-03T02:38:32;5.53;;;3.57;;
18280;SDS011;9266;51.132;17.062;2022-09-03T02:40:59;4.77;;;3.63;;
18280;SDS011;9266;51.132;17.062;2022-09-03T02:43:29;4.67;;;3.33;;
18280;SDS011;9266;51.132;17.062;2022-09-03T02:46:03;3.80;;;3.10;;
18280;SDS011;9266;51.132;17.062;2022-09-03T02:48:34;4.80;;;3.30;;
18280;SDS011;9266;51.132;17.062;2022-09-03T02:51:01;4.20;;;3.30;;
18280;SDS011;9266;51.132;17.062;2022-09-03T02:53:30;5.93;;;3.30;;
18280;SDS011;9266;51.132;17.062;2022-09-03T02:55:57;5.93;;;3.33;;
18280;SDS011;9266;51.132;17.062;2022-09-03T02:58:25;3.90;;;3.20;;
18280;SDS011;9266;51.132;17.062;2022-09-03T03:00:52;5.03;;;3.53;;
18280;SDS011;9266;51.132;17.062;2022-09-03T03:03:19;6.63;;;3.33;;
18280;SDS011;9266;51.132;17.062;2022-09-03T03:05:49;5.13;;;3.20;;
18280;SDS011;9266;51.132;17.062;2022-09-03T03:08:17;5.50;;;3.50;;
18280;SDS011;9266;51.132;17.062;2022-09-03T03:10:50;6.27;;;3.40;;
18280;SDS011;9266;51.132;17.062;2022-09-03T03:13:18;6.10;;;3.60;;
18280;SDS011;9266;51.132;17.062;2022-09-03T03:15:45;3.53;;;3.20;;
18280;SDS011;9266;51.132;17.062;2022-09-03T03:18:13;8.20;;;3.63;;
18280;SDS011;9266;51.132;17.062;2022-09-03T03:20:42;5.43;;;3.40;;
18280;SDS011;9266;51.132;17.062;2022-09-03T03:23:10;4.43;;;3.33;;
18280;SDS011;9266;51.132;17.062;2022-09-03T03:25:38;4.60;;;3.73;;
18280;SDS011;9266;51.132;17.062;2022-09-03T03:28:05;5.00;;;3.53;;
18280;SDS011;9266;51.132;17.062;2022-09-03T03:30:33;5.70;;;3.37;;
18280;SDS011;9266;51.132;17.062;2022-09-03T03:33:02;6.33;;;3.77;;
18280;SDS011;9266;51.132;17.062;2022-09-03T03:35:29;6.07;;;3.57;;
18280;SDS011;9266;51.132;17.062;2022-09-03T03:37:56;5.77;;;3.60;;
18280;SDS011;9266;51.132;17.062;2022-09-03T03:40:25;7.53;;;3.63;;
18280;SDS011;9266;51.132;17.062;2022-09-03T03:42:52;6.43;;;3.77;;
18280;SDS011;9266;51.132;17.062;2022-09-03T03:45:19;4.30;;;3.60;;
18280;SDS011;9266;51.132;17.062;2022-09-03T03:47:46;6.83;;;3.77;;
18280;SDS011;9266;51.132;17.062;2022-09-03T03:50:14;4.57;;;3.73;;
18280;SDS011;9266;51.132;17.062;2022-09-03T03:52:41;4.97;;;3.57;;
18280;SDS011;9266;51.132;17.062;2022-09-03T03:55:08;6.00;;;3.80;;
18280;SDS011;9266;51.132;17.062;2022-09-03T03:57:37;6.67;;;3.60;;
18280;SDS011;9266;51.132;17.062;2022-09-03T04:00:04;6.20;;;3.93;;
18280;SDS011;9266;51.132;17.062;2022-09-03T04:02:32;5.30;;;3.97;;
18280;SDS011;9266;51.132;17.062;2022-09-03T04:04:59;4.87;;;3.80;;
18280;SDS011;9266;51.132;17.062;2022-09-03T04:07:26;5.97;;;3.63;;
18280;SDS011;9266;51.132;17.062;2022-09-03T04:09:53;6.20;;;3.43;;
18280;SDS011;9266;51.132;17.062;2022-09-03T04:12:20;6.20;;;3.97;;
18280;SDS011;9266;51.132;17.062;2022-09-03T04:14:49;4.50;;;3.50;;
18280;SDS011;9266;51.132;17.062;2022-09-03T04:17:15;9.07;;;3.90;;
18280;SDS011;9266;51.132;17.062;2022-09-03T04:19:42;5.53;;;3.60;;
18280;SDS011;9266;51.132;17.062;2022-09-03T04:22:12;6.93;;;4.13;;
18280;SDS011;9266;51.132;17.062;2022-09-03T04:24:39;6.93;;;3.83;;
18280;SDS011;9266;51.132;17.062;2022-09-03T04:27:06;5.70;;;3.83;;
18280;SDS011;9266;51.132;17.062;2022-09-03T04:29:33;7.10;;;3.43;;
18280;SDS011;9266;51.132;17.062;2022-09-03T04:32:02;6.70;;;3.70;;
18280;SDS011;9266;51.132;17.062;2022-09-03T04:35:01;6.03;;;3.40;;
18280;SDS011;9266;51.132;17.062;2022-09-03T04:37:29;6.70;;;3.63;;
18280;SDS011;9266;51.132;17.062;2022-09-03T04:39:56;5.67;;;3.60;;
18280;SDS011;9266;51.132;17.062;2022-09-03T04:42:23;4.37;;;3.30;;
18280;SDS011;9266;51.132;17.062;2022-09-03T04:44:50;6.20;;;3.20;;
18280;SDS011;9266;51.132;17.062;2022-09-03T04:47:18;5.47;;;3.30;;
18280;SDS011;9266;51.132;17.062;2022-09-03T04:49:45;4.47;;;3.40;;
18280;SDS011;9266;51.132;17.062;2022-09-03T04:52:12;7.03;;;3.50;;
18280;SDS011;9266;51.132;17.062;2022-09-03T04:54:39;10.17;;;3.70;;
18280;SDS011;9266;51.132;17.062;2022-09-03T04:57:06;6.07;;;3.33;;
18280;SDS011;9266;51.132;17.062;2022-09-03T04:59:34;4.43;;;3.43;;
18280;SDS011;9266;51.132;17.062;2022-09-03T05:02:01;5.17;;;2.93;;
18280;SDS011;9266;51.132;17.062;2022-09-03T05:04:29;6.77;;;3.60;;
18280;SDS011;9266;51.132;17.062;2022-09-03T05:06:56;4.00;;;3.27;;
18280;SDS011;9266;51.132;17.062;2022-09-03T05:09:23;5.63;;;3.40;;
18280;SDS011;9266;51.132;17.062;2022-09-03T05:11:50;5.90;;;3.80;;
18280;SDS011;9266;51.132;17.062;2022-09-03T05:14:18;4.90;;;3.17;;
18280;SDS011;9266;51.132;17.062;2022-09-03T05:16:45;4.83;;;3.10;;
18280;SDS011;9266;51.132;17.062;2022-09-03T05:19:11;4.57;;;3.27;;
18280;SDS011;9266;51.132;17.062;2022-09-03T05:21:40;9.77;;;3.80;;
18280;SDS011;9266;51.132;17.062;2022-09-03T05:24:07;5.40;;;3.80;;
18280;SDS011;9266;51.132;17.062;2022-09-03T05:26:36;5.67;;;3.30;;
18280;SDS011;9266;51.132;17.062;2022-09-03T05:29:05;6.57;;;3.93;;
18280;SDS011;9266;51.132;17.062;2022-09-03T05:31:33;5.33;;;3.10;;
18280;SDS011;9266;51.132;17.062;2022-09-03T05:34:02;6.97;;;3.13;;
18280;SDS011;9266;51.132;17.062;2022-09-03T05:36:31;3.53;;;2.87;;
18280;SDS011;9266;51.132;17.062;2022-09-03T05:39:01;6.13;;;3.30;;
18280;SDS011;9266;51.132;17.062;2022-09-03T05:41:28;5.13;;;3.00;;
18280;SDS011;9266;51.132;17.062;2022-09-03T05:43:57;3.30;;;2.60;;
18280;SDS011;9266;51.132;17.062;2022-09-03T05:46:25;6.90;;;3.20;;
18280;SDS011;9266;51.132;17.062;2022-09-03T05:48:56;7.17;;;3.30;;
18280;SDS011;9266;51.132;17.062;2022-09-03T05:51:24;5.27;;;3.27;;
18280;SDS011;9266;51.132;17.062;2022-09-03T05:53:51;6.57;;;3.33;;
18280;SDS011;9266;51.132;17.062;2022-09-03T05:56:21;7.40;;;3.40;;
18280;SDS011;9266;51.132;17.062;2022-09-03T05:58:50;4.47;;;3.50;;
18280;SDS011;9266;51.132;17.062;2022-09-03T06:01:18;6.93;;;3.63;;
18280;SDS011;9266;51.132;17.062;2022-09-03T06:03:47;8.33;;;3.50;;
18280;SDS011;9266;51.132;17.062;2022-09-03T06:06:19;7.53;;;3.47;;
18280;SDS011;9266;51.132;17.062;2022-09-03T06:08:49;5.87;;;3.20;;
18280;SDS011;9266;51.132;17.062;2022-09-03T06:11:17;5.17;;;3.30;;
18280;SDS011;9266;51.132;17.062;2022-09-03T06:13:45;4.87;;;3.10;;
18280;SDS011;9266;51.132;17.062;2022-09-03T06:16:12;5.73;;;3.33;;
18280;SDS011;9266;51.132;17.062;2022-09-03T06:18:40;5.07;;;3.07;;
18280;SDS011;9266;51.132;17.062;2022-09-03T06:21:07;4.10;;;2.90;;
18280;SDS011;9266;51.132;17.062;2022-09-03T06:23:34;5.13;;;2.87;;
18280;SDS011;9266;51.132;17.062;2022-09-03T06:26:02;5.67;;;2.90;;
18280;SDS011;9266;51.132;17.062;2022-09-03T06:28:30;7.53;;;3.20;;
18280;SDS011;9266;51.132;17.062;2022-09-03T06:31:00;6.43;;;3.40;;
18280;SDS011;9266;51.132;17.062;2022-09-03T06:33:29;6.87;;;2.87;;
18280;SDS011;9266;51.132;17.062;2022-09-03T06:35:57;6.67;;;3.23;;
18280;SDS011;9266;51.132;17.062;2022-09-03T06:38:26;5.33;;;2.93;;
18280;SDS011;9266;51.132;17.062;2022-09-03T06:40:56;5.60;;;3.23;;
18280;SDS011;9266;51.132;17.062;2022-09-03T06:43:26;4.00;;;2.77;;
18280;SDS011;9266;51.132;17.062;2022-09-03T06:45:55;6.60;;;3.10;;
18280;SDS011;9266;51.132;17.062;2022-09-03T06:48:24;7.67;;;3.10;;
18280;SDS011;9266;51.132;17.062;2022-09-03T06:50:53;4.85;;;3.13;;
18280;SDS011;9266;51.132;17.062;2022-09-03T06:53:21;3.22;;;2.80;;
18280;SDS011;9266;51.132;17.062;2022-09-03T06:55:53;5.63;;;3.00;;
18280;SDS011;9266;51.132;17.062;2022-09-03T06:58:21;7.53;;;3.65;;
18280;SDS011;9266;51.132;17.062;2022-09-03T07:00:48;6.00;;;2.95;;
18280;SDS011;9266;51.132;17.062;2022-09-03T07:03:17;4.05;;;2.72;;
18280;SDS011;9266;51.132;17.062;2022-09-03T07:05:46;6.72;;;3.10;;
18280;SDS011;9266;51.132;17.062;2022-09-03T07:08:13;5.68;;;3.15;;
18280;SDS011;9266;51.132;17.062;2022-09-03T07:10:44;3.75;;;2.75;;
18280;SDS011;9266;51.132;17.062;2022-09-03T07:13:13;3.65;;;3.05;;
18280;SDS011;9266;51.132;17.062;2022-09-03T07:15:40;5.15;;;2.70;;
18280;SDS011;9266;51.132;17.062;2022-09-03T07:18:07;5.60;;;2.83;;
18280;SDS011;9266;51.132;17.062;2022-09-03T07:20:34;4.40;;;3.17;;
18280;SDS011;9266;51.132;17.062;2022-09-03T07:23:02;9.73;;;4.30;;
18280;SDS011;9266;51.132;17.062;2022-09-03T07:25:29;6.60;;;3.40;;
18280;SDS011;9266;51.132;17.062;2022-09-03T07:27:57;5.38;;;3.55;;
18280;SDS011;9266;51.132;17.062;2022-09-03T07:30:24;4.85;;;3.08;;
18280;SDS011;9266;51.132;17.062;2022-09-03T07:32:51;4.20;;;2.75;;
18280;SDS011;9266;51.132;17.062;2022-09-03T07:35:19;6.25;;;3.10;;
18280;SDS011;9266;51.132;17.062;2022-09-03T07:37:49;6.80;;;4.10;;
18280;SDS011;9266;51.132;17.062;2022-09-03T07:40:18;7.65;;;3.70;;
18280;SDS011;9266;51.132;17.062;2022-09-03T07:42:45;6.15;;;2.92;;
18280;SDS011;9266;51.132;17.062;2022-09-03T07:45:12;4.25;;;2.80;;
18280;SDS011;9266;51.132;17.062;2022-09-03T07:47:44;4.70;;;3.23;;
18280;SDS011;9266;51.132;17.062;2022-09-03T07:50:13;4.22;;;3.33;;
18280;SDS011;9266;51.132;17.062;2022-09-03T07:52:41;6.28;;;3.75;;
18280;SDS011;9266;51.132;17.062;2022-09-03T07:55:08;5.68;;;2.95;;
18280;SDS011;9266;51.132;17.062;2022-09-03T07:57:37;7.32;;;3.45;;
18280;SDS011;9266;51.132;17.062;2022-09-03T08:00:05;7.32;;;3.17;;
18280;SDS011;9266;51.132;17.062;2022-09-03T08:02:33;6.78;;;3.05;;
18280;SDS011;9266;51.132;17.062;2022-09-03T08:05:01;5.85;;;3.38;;
18280;SDS011;9266;51.132;17.062;2022-09-03T08:07:28;5.07;;;3.20;;
18280;SDS011;9266;51.132;17.062;2022-09-03T08:09:55;5.03;;;3.37;;
18280;SDS011;9266;51.132;17.062;2022-09-03T08:12:23;4.90;;;3.70;;
18280;SDS011;9266;51.132;17.062;2022-09-03T08:14:51;7.10;;;3.63;;
18280;SDS011;9266;51.132;17.062;2022-09-03T08:17:19;5.68;;;3.47;;
18280;SDS011;9266;51.132;17.062;2022-09-03T08:19:46;4.53;;;3.27;;
18280;SDS011;9266;51.132;17.062;2022-09-03T08:22:12;5.27;;;3.53;;
18280;SDS011;9266;51.132;17.062;2022-09-03T08:24:40;7.07;;;3.60;;
18280;SDS011;9266;51.132;17.062;2022-09-03T08:27:07;6.50;;;3.90;;
18280;SDS011;9266;51.132;17.062;2022-09-03T08:29:34;7.07;;;3.73;;
18280;SDS011;9266;51.132;17.062;2022-09-03T08:32:04;7.60;;;3.90;;
18280;SDS011;9266;51.132;17.062;2022-09-03T08:34:30;6.40;;;3.60;;
18280;SDS011;9266;51.132;17.062;2022-09-03T08:36:57;7.83;;;4.43;;
18280;SDS011;9266;51.132;17.062;2022-09-03T08:39:26;8.60;;;4.33;;
18280;SDS011;9266;51.132;17.062;2022-09-03T08:42:00;5.80;;;4.00;;
18280;SDS011;9266;51.132;17.062;2022-09-03T08:44:38;9.87;;;3.90;;
18280;SDS011;9266;51.132;17.062;2022-09-03T08:47:12;6.13;;;3.50;;
18280;SDS011;9266;51.132;17.062;2022-09-03T08:49:44;5.97;;;3.93;;
18280;SDS011;9266;51.132;17.062;2022-09-03T08:52:20;6.77;;;3.30;;
18280;SDS011;9266;51.132;17.062;2022-09-03T08:54:51;5.57;;;3.70;;
18280;SDS011;9266;51.132;17.062;2022-09-03T08:57:28;8.57;;;3.60;;
18280;SDS011;9266;51.132;17.062;2022-09-03T09:00:03;7.30;;;3.90;;
18280;SDS011;9266;51.132;17.062;2022-09-03T09:02:34;6.90;;;3.53;;
18280;SDS011;9266;51.132;17.062;2022-09-03T09:05:11;6.93;;;3.90;;
18280;SDS011;9266;51.132;17.062;2022-09-03T09:07:44;6.93;;;4.00;;
18280;SDS011;9266;51.132;17.062;2022-09-03T09:10:19;6.50;;;3.93;;
18280;SDS011;9266;51.132;17.062;2022-09-03T09:12:55;7.87;;;4.03;;
18280;SDS011;9266;51.132;17.062;2022-09-03T09:15:33;8.20;;;4.00;;
18280;SDS011;9266;51.132;17.062;2022-09-03T09:18:11;7.13;;;4.00;;
18280;SDS011;9266;51.132;17.062;2022-09-03T09:20:47;4.40;;;3.37;;
18280;SDS011;9266;51.132;17.062;2022-09-03T09:23:18;7.83;;;3.77;;
18280;SDS011;9266;51.132;17.062;2022-09-03T09:25:50;6.57;;;4.00;;
18280;SDS011;9266;51.132;17.062;2022-09-03T09:28:20;5.43;;;3.60;;
18280;SDS011;9266;51.132;17.062;2022-09-03T09:30:53;6.50;;;3.60;;
18280;SDS011;9266;51.132;17.062;2022-09-03T09:33:23;6.53;;;3.90;;
18280;SDS011;9266;51.132;17.062;2022-09-03T09:35:50;5.07;;;3.43;;
18280;SDS011;9266;51.132;17.062;2022-09-03T09:38:26;6.57;;;3.80;;
18280;SDS011;9266;51.132;17.062;2022-09-03T09:41:06;6.33;;;3.77;;
18280;SDS011;9266;51.132;17.062;2022-09-03T09:43:34;5.77;;;3.77;;
18280;SDS011;9266;51.132;17.062;2022-09-03T09:46:06;5.03;;;3.70;;
18280;SDS011;9266;51.132;17.062;2022-09-03T09:48:40;6.73;;;3.87;;
18280;SDS011;9266;51.132;17.062;2022-09-03T09:51:17;9.03;;;4.00;;
18280;SDS011;9266;51.132;17.062;2022-09-03T09:53:46;8.17;;;3.70;;
18280;SDS011;9266;51.132;17.062;2022-09-03T09:56:21;5.93;;;3.40;;
18280;SDS011;9266;51.132;17.062;2022-09-03T09:58:49;5.53;;;3.60;;
18280;SDS011;9266;51.132;17.062;2022-09-03T10:01:26;6.17;;;3.40;;
18280;SDS011;9266;51.132;17.062;2022-09-03T10:03:59;5.63;;;3.60;;
18280;SDS011;9266;51.132;17.062;2022-09-03T10:06:34;5.33;;;3.63;;
18280;SDS011;9266;51.132;17.062;2022-09-03T10:09:22;7.13;;;4.30;;
18280;SDS011;9266;51.132;17.062;2022-09-03T10:11:55;7.30;;;3.97;;
18280;SDS011;9266;51.132;17.062;2022-09-03T10:14:31;6.93;;;3.27;;
18280;SDS011;9266;51.132;17.062;2022-09-03T10:17:04;6.47;;;3.20;;
18280;SDS011;9266;51.132;17.062;2022-09-03T10:19:38;7.13;;;3.70;;
18280;SDS011;9266;51.132;17.062;2022-09-03T10:22:31;5.80;;;3.73;;
18280;SDS011;9266;51.132;17.062;2022-09-03T10:25:05;4.57;;;3.60;;
18280;SDS011;9266;51.132;17.062;2022-09-03T10:27:34;6.30;;;3.63;;
18280;SDS011;9266;51.132;17.062;2022-09-03T10:30:03;7.70;;;3.83;;
18280;SDS011;9266;51.132;17.062;2022-09-03T10:32:34;5.30;;;3.67;;
18280;SDS011;9266;51.132;17.062;2022-09-03T10:35:12;6.47;;;3.70;;
18280;SDS011;9266;51.132;17.062;2022-09-03T10:37:49;9.53;;;3.97;;
18280;SDS011;9266;51.132;17.062;2022-09-03T10:40:27;4.03;;;3.37;;
18280;SDS011;9266;51.132;17.062;2022-09-03T10:45:58;6.70;;;3.87;;
18280;SDS011;9266;51.132;17.062;2022-09-03T10:48:52;9.17;;;3.50;;
18280;SDS011;9266;51.132;17.062;2022-09-03T10:51:40;8.27;;;3.27;;
18280;SDS011;9266;51.132;17.062;2022-09-03T10:57:02;7.33;;;4.03;;
18280;SDS011;9266;51.132;17.062;2022-09-03T10:59:41;10.23;;;3.70;;
18280;SDS011;9266;51.132;17.062;2022-09-03T11:02:31;5.90;;;3.70;;
18280;SDS011;9266;51.132;17.062;2022-09-03T11:05:20;9.37;;;3.67;;
18280;SDS011;9266;51.132;17.062;2022-09-03T11:07:56;4.93;;;3.60;;
18280;SDS011;9266;51.132;17.062;2022-09-03T11:10:26;7.43;;;3.67;;
18280;SDS011;9266;51.132;17.062;2022-09-03T11:12:58;8.00;;;4.53;;
18280;SDS011;9266;51.132;17.062;2022-09-03T11:15:32;5.50;;;3.20;;
18280;SDS011;9266;51.132;17.062;2022-09-03T11:18:05;6.83;;;3.53;;
18280;SDS011;9266;51.132;17.062;2022-09-03T11:20:37;5.10;;;3.70;;
18280;SDS011;9266;51.132;17.062;2022-09-03T16:52:35;6.20;;;4.70;;
18280;SDS011;9266;51.132;17.062;2022-09-03T16:55:13;5.73;;;4.40;;
18280;SDS011;9266;51.132;17.062;2022-09-03T17:00:41;6.43;;;4.33;;
18280;SDS011;9266;51.132;17.062;2022-09-03T17:03:30;6.10;;;4.73;;
18280;SDS011;9266;51.132;17.062;2022-09-03T17:06:27;7.03;;;4.93;;
18280;SDS011;9266;51.132;17.062;2022-09-03T17:09:04;6.57;;;4.40;;
18280;SDS011;9266;51.132;17.062;2022-09-03T17:11:47;6.27;;;4.53;;
18280;SDS011;9266;51.132;17.062;2022-09-03T17:14:37;5.73;;;4.63;;
18280;SDS011;9266;51.132;17.062;2022-09-03T17:17:17;6.67;;;5.00;;
18280;SDS011;9266;51.132;17.062;2022-09-03T17:19:56;7.17;;;4.87;;
18280;SDS011;9266;51.132;17.062;2022-09-03T17:22:34;9.07;;;5.10;;
18280;SDS011;9266;51.132;17.062;2022-09-03T17:25:15;6.67;;;4.67;;
18280;SDS011;9266;51.132;17.062;2022-09-03T17:27:54;7.60;;;4.90;;
18280;SDS011;9266;51.132;17.062;2022-09-03T17:30:34;5.63;;;4.50;;
18280;SDS011;9266;51.132;17.062;2022-09-03T17:33:22;7.87;;;5.03;;
18280;SDS011;9266;51.132;17.062;2022-09-03T17:36:05;8.70;;;5.10;;
18280;SDS011;9266;51.132;17.062;2022-09-03T17:38:59;5.50;;;4.40;;
18280;SDS011;9266;51.132;17.062;2022-09-03T17:41:45;8.07;;;5.10;;
18280;SDS011;9266;51.132;17.062;2022-09-03T17:44:19;7.27;;;4.90;;
18280;SDS011;9266;51.132;17.062;2022-09-03T17:47:01;6.60;;;4.80;;
18280;SDS011;9266;51.132;17.062;2022-09-03T17:49:41;5.90;;;5.13;;
18280;SDS011;9266;51.132;17.062;2022-09-03T17:52:20;6.53;;;4.70;;
18280;SDS011;9266;51.132;17.062;2022-09-03T17:54:54;5.60;;;5.00;;
18280;SDS011;9266;51.132;17.062;2022-09-03T17:57:26;7.07;;;5.50;;
18280;SDS011;9266;51.132;17.062;2022-09-03T17:59:58;5.90;;;4.90;;
18280;SDS011;9266;51.132;17.062;2022-09-03T18:02:29;7.87;;;5.60;;
18280;SDS011;9266;51.132;17.062;2022-09-03T18:05:02;8.23;;;5.60;;
18280;SDS011;9266;51.132;17.062;2022-09-03T18:07:37;7.90;;;5.37;;
18280;SDS011;9266;51.132;17.062;2022-09-03T18:10:16;7.87;;;5.47;;
18280;SDS011;9266;51.132;17.062;2022-09-03T18:12:53;7.43;;;5.60;;
18280;SDS011;9266;51.132;17.062;2022-09-03T18:15:30;8.47;;;5.63;;
18280;SDS011;9266;51.132;17.062;2022-09-03T18:18:01;8.37;;;5.40;;
18280;SDS011;9266;51.132;17.062;2022-09-03T18:20:38;7.77;;;5.70;;
18280;SDS011;9266;51.132;17.062;2022-09-03T18:23:27;8.60;;;6.17;;
18280;SDS011;9266;51.132;17.062;2022-09-03T18:26:19;8.67;;;7.30;;
18280;SDS011;9266;51.132;17.062;2022-09-03T18:29:12;14.13;;;8.33;;
18280;SDS011;9266;51.132;17.062;2022-09-03T18:32:00;14.47;;;9.27;;
18280;SDS011;9266;51.132;17.062;2022-09-03T18:34:45;13.77;;;8.20;;
18280;SDS011;9266;51.132;17.062;2022-09-03T18:37:30;13.70;;;9.37;;
18280;SDS011;9266;51.132;17.062;2022-09-03T18:40:15;12.07;;;9.10;;
18280;SDS011;9266;51.132;17.062;2022-09-03T18:43:06;11.43;;;9.23;;
18280;SDS011;9266;51.132;17.062;2022-09-03T18:45:59;14.27;;;9.70;;
18280;SDS011;9266;51.132;17.062;2022-09-03T18:48:49;10.43;;;9.03;;
18280;SDS011;9266;51.132;17.062;2022-09-03T18:51:41;14.00;;;9.53;;
18280;SDS011;9266;51.132;17.062;2022-09-03T18:54:36;14.47;;;9.50;;
18280;SDS011;9266;51.132;17.062;2022-09-03T18:57:35;10.43;;;9.17;;
18280;SDS011;9266;51.132;17.062;2022-09-03T19:00:28;11.20;;;8.83;;
18280;SDS011;9266;51.132;17.062;2022-09-03T19:03:24;14.77;;;9.30;;
18280;SDS011;9266;51.132;17.062;2022-09-03T19:06:22;13.10;;;8.63;;
18280;SDS011;9266;51.132;17.062;2022-09-03T19:09:16;11.03;;;7.80;;
18280;SDS011;9266;51.132;17.062;2022-09-03T19:12:11;10.83;;;7.43;;
18280;SDS011;9266;51.132;17.062;2022-09-03T19:15:05;13.33;;;7.83;;
18280;SDS011;9266;51.132;17.062;2022-09-03T19:21:08;12.50;;;7.47;;
18280;SDS011;9266;51.132;17.062;2022-09-03T19:24:00;8.90;;;7.03;;
18280;SDS011;9266;51.132;17.062;2022-09-03T19:26:47;9.40;;;6.90;;
18280;SDS011;9266;51.132;17.062;2022-09-03T19:29:54;9.77;;;7.37;;
18280;SDS011;9266;51.132;17.062;2022-09-03T19:32:48;9.10;;;7.50;;
18280;SDS011;9266;51.132;17.062;2022-09-03T19:35:53;10.30;;;7.40;;
18280;SDS011;9266;51.132;17.062;2022-09-03T19:38:51;10.87;;;7.60;;
18280;SDS011;9266;51.132;17.062;2022-09-03T19:41:46;8.80;;;7.23;;
18280;SDS011;9266;51.132;17.062;2022-09-03T19:44:49;9.33;;;7.90;;
18280;SDS011;9266;51.132;17.062;2022-09-03T19:47:45;10.00;;;7.93;;
18280;SDS011;9266;51.132;17.062;2022-09-03T19:50:36;11.57;;;8.10;;
18280;SDS011;9266;51.132;17.062;2022-09-03T19:53:27;9.23;;;8.20;;
18280;SDS011;9266;51.132;17.062;2022-09-03T19:56:18;12.33;;;8.00;;
18280;SDS011;9266;51.132;17.062;2022-09-03T19:59:10;12.40;;;8.47;;
18280;SDS011;9266;51.132;17.062;2022-09-03T20:01:56;11.87;;;9.20;;
18280;SDS011;9266;51.132;17.062;2022-09-03T20:04:43;10.13;;;8.17;;
18280;SDS011;9266;51.132;17.062;2022-09-03T20:07:32;11.43;;;8.37;;
18280;SDS011;9266;51.132;17.062;2022-09-03T20:10:19;10.57;;;7.83;;
18280;SDS011;9266;51.132;17.062;2022-09-03T20:12:52;11.27;;;8.07;;
18280;SDS011;9266;51.132;17.062;2022-09-03T20:15:28;11.07;;;8.20;;
18280;SDS011;9266;51.132;17.062;2022-09-03T20:18:05;12.90;;;8.70;;
18280;SDS011;9266;51.132;17.062;2022-09-03T20:20:43;9.67;;;7.37;;
18280;SDS011;9266;51.132;17.062;2022-09-03T20:23:15;11.37;;;8.30;;
18280;SDS011;9266;51.132;17.062;2022-09-03T20:25:53;12.43;;;8.17;;
18280;SDS011;9266;51.132;17.062;2022-09-03T20:28:49;10.97;;;8.73;;
18280;SDS011;9266;51.132;17.062;2022-09-03T20:31:28;12.23;;;8.70;;
18280;SDS011;9266;51.132;17.062;2022-09-03T20:34:06;10.20;;;8.43;;
18280;SDS011;9266;51.132;17.062;2022-09-03T20:36:44;11.30;;;8.40;;
18280;SDS011;9266;51.132;17.062;2022-09-03T20:39:22;10.87;;;8.13;;
18280;SDS011;9266;51.132;17.062;2022-09-03T20:42:05;12.17;;;8.97;;
18280;SDS011;9266;51.132;17.062;2022-09-03T20:44:51;10.57;;;8.43;;
18280;SDS011;9266;51.132;17.062;2022-09-03T20:47:43;11.20;;;8.50;;
18280;SDS011;9266;51.132;17.062;2022-09-03T20:50:26;11.77;;;8.27;;
18280;SDS011;9266;51.132;17.062;2022-09-03T20:53:11;12.23;;;8.30;;
18280;SDS011;9266;51.132;17.062;2022-09-03T20:55:50;13.80;;;7.77;;
18280;SDS011;9266;51.132;17.062;2022-09-03T20:58:21;12.13;;;8.90;;
18280;SDS011;9266;51.132;17.062;2022-09-03T21:01:01;10.20;;;8.40;;
18280;SDS011;9266;51.132;17.062;2022-09-03T21:03:31;12.43;;;8.73;;
18280;SDS011;9266;51.132;17.062;2022-09-03T21:06:09;12.13;;;8.40;;
18280;SDS011;9266;51.132;17.062;2022-09-03T21:08:55;10.47;;;8.93;;
18280;SDS011;9266;51.132;17.062;2022-09-03T21:11:37;12.17;;;9.30;;
18280;SDS011;9266;51.132;17.062;2022-09-03T21:14:11;14.63;;;9.10;;
18280;SDS011;9266;51.132;17.062;2022-09-03T21:16:52;11.47;;;9.03;;